Time;durP1;ratioP1;P1;durP2;ratioP2;P2;SDS_P1;SDS_P2;PMS_P1;PMS_P2;Temp;Humidity;BMP_temperature;BMP_pressure;BME280_temperature;BME280_humidity;BME280_pressure;Samples;Min_cycle;Max_cycle;Signal;HPM_P1;HPM_P2
2023/05/28 00:00:27;;;;;;;6.38;3.13;;;22.70;59.80;;;;;;4886620;28;92386;-87
2023/05/28 00:02:52;;;;;;;3.95;2.65;;;22.60;59.70;;;;;;4885881;28;97326;-91
2023/05/28 00:05:18;;;;;;;4.50;3.10;;;22.60;60.00;;;;;;4885417;28;96172;-92
2023/05/28 00:07:44;;;;;;;5.25;3.05;;;22.60;59.80;;;;;;4886700;28;93234;-90
2023/05/28 00:10:10;;;;;;;6.00;3.38;;;22.60;59.70;;;;;;4888739;28;92581;-92
2023/05/28 00:12:36;;;;;;;5.13;2.80;;;22.60;59.70;;;;;;4878938;28;92689;-90
2023/05/28 00:15:02;;;;;;;4.60;3.00;;;22.60;59.70;;;;;;4878599;28;93492;-91
2023/05/28 00:17:28;;;;;;;4.03;2.85;;;22.60;59.90;;;;;;4877564;28;92821;-90
2023/05/28 00:19:53;;;;;;;4.68;3.00;;;22.60;59.80;;;;;;4881930;28;92403;-90
2023/05/28 00:22:19;;;;;;;3.88;2.80;;;22.60;59.80;;;;;;4887930;28;94001;-95
2023/05/28 00:24:45;;;;;;;4.88;3.13;;;22.60;59.70;;;;;;4881994;28;95509;-90
2023/05/28 00:27:10;;;;;;;5.63;3.25;;;22.60;59.70;;;;;;4887895;28;94125;-92
2023/05/28 00:29:36;;;;;;;5.43;3.10;;;22.60;59.70;;;;;;4883986;28;92578;-90
2023/05/28 00:32:02;;;;;;;4.65;3.10;;;22.60;59.70;;;;;;4883829;28;93002;-91
2023/05/28 00:34:28;;;;;;;4.85;3.50;;;22.60;59.70;;;;;;4880786;28;95506;-92
2023/05/28 00:36:53;;;;;;;6.53;3.20;;;22.60;59.90;;;;;;4888077;28;92715;-93
2023/05/28 00:39:19;;;;;;;3.90;3.00;;;22.60;59.90;;;;;;4880764;28;92758;-90
2023/05/28 00:41:45;;;;;;;5.20;3.35;;;22.60;59.80;;;;;;4884056;28;95556;-92
2023/05/28 00:44:12;;;;;;;5.38;3.30;;;22.60;59.90;;;;;;4879395;28;95501;-91
2023/05/28 00:46:41;;;;;;;5.22;3.28;;;22.50;59.60;;;;;;4881226;28;92067;-90
2023/05/28 00:49:09;;;;;;;5.03;2.95;;;22.50;59.60;;;;;;4879717;28;92723;-89
2023/05/28 00:51:36;;;;;;;4.18;2.92;;;22.50;59.60;;;;;;4880699;28;99455;-90
2023/05/28 00:54:03;;;;;;;4.32;3.00;;;22.50;59.60;;;;;;4886832;28;96036;-89
2023/05/28 00:56:31;;;;;;;5.32;3.13;;;22.50;59.70;;;;;;4885174;28;92206;-91
2023/05/28 00:58:57;;;;;;;5.10;3.20;;;22.50;59.60;;;;;;4882794;28;92114;-89
2023/05/28 01:01:26;;;;;;;4.28;2.72;;;22.50;60.30;;;;;;4882135;28;93283;-91
2023/05/28 01:03:52;;;;;;;4.82;3.08;;;22.50;59.70;;;;;;4881054;28;92987;-89
2023/05/28 01:06:20;;;;;;;3.30;2.53;;;22.50;59.60;;;;;;4882530;28;92838;-91
2023/05/28 01:08:47;;;;;;;5.68;3.03;;;22.50;59.60;;;;;;4883730;28;91855;-90
2023/05/28 01:11:19;;;;;;;3.65;2.60;;;22.50;59.60;;;;;;4878888;28;98984;-92
2023/05/28 01:13:46;;;;;;;5.28;3.13;;;22.50;59.70;;;;;;4881852;28;94135;-93
2023/05/28 01:16:12;;;;;;;4.80;3.28;;;22.50;59.70;;;;;;4888869;28;93582;-90
2023/05/28 01:18:44;;;;;;;4.68;2.85;;;22.50;59.70;;;;;;4889322;28;92240;-91
2023/05/28 01:21:10;;;;;;;4.25;2.88;;;22.50;59.60;;;;;;4880172;28;95971;-93
2023/05/28 01:23:47;;;;;;;4.95;2.75;;;22.50;59.60;;;;;;4881138;28;93788;-91
2023/05/28 01:26:15;;;;;;;4.72;2.72;;;22.50;59.60;;;;;;4880872;28;92883;-93
2023/05/28 01:28:45;;;;;;;4.28;2.45;;;22.50;59.70;;;;;;4881318;28;92883;-91
2023/05/28 01:31:12;;;;;;;6.20;3.40;;;22.40;59.70;;;;;;4898005;28;95740;-92
2023/05/28 01:33:38;;;;;;;4.43;3.22;;;22.50;59.90;;;;;;4880338;28;94188;-93
2023/05/28 01:36:11;;;;;;;3.95;2.97;;;22.40;59.70;;;;;;4881333;28;92769;-90
2023/05/28 01:38:40;;;;;;;4.13;2.63;;;22.40;59.70;;;;;;4886016;28;92861;-93
2023/05/28 01:41:07;;;;;;;4.45;2.80;;;22.40;59.60;;;;;;4887896;28;93548;-88
2023/05/28 01:43:34;;;;;;;5.18;2.95;;;22.40;59.60;;;;;;4887612;28;92613;-91
2023/05/28 01:46:00;;;;;;;4.50;3.20;;;22.40;59.60;;;;;;4883176;28;92403;-93
2023/05/28 01:48:27;;;;;;;3.28;2.53;;;22.40;59.80;;;;;;4888504;28;92460;-91
2023/05/28 01:50:54;;;;;;;3.97;2.97;;;22.40;59.60;;;;;;4882478;28;92757;-88
2023/05/28 01:53:19;;;;;;;4.38;2.88;;;22.40;59.60;;;;;;4879555;28;94607;-93
2023/05/28 01:55:45;;;;;;;3.10;2.20;;;22.40;59.60;;;;;;4882066;28;92676;-93
2023/05/28 01:58:11;;;;;;;3.33;2.70;;;22.40;59.50;;;;;;4880681;28;92099;-89
2023/05/28 02:00:43;;;;;;;3.40;2.72;;;22.40;59.50;;;;;;4889480;28;94851;-92
2023/05/28 02:03:11;;;;;;;3.15;2.40;;;22.40;59.70;;;;;;4888001;28;95536;-94
2023/05/28 02:05:37;;;;;;;3.97;2.65;;;22.40;59.70;;;;;;4881954;28;94025;-90
2023/05/28 02:08:03;;;;;;;4.03;2.60;;;22.40;59.70;;;;;;4881031;28;92175;-88
2023/05/28 02:10:28;;;;;;;3.40;2.70;;;22.40;59.60;;;;;;4881920;28;96187;-94
2023/05/28 02:12:54;;;;;;;3.80;2.60;;;22.40;59.60;;;;;;4887732;28;95312;-92
2023/05/28 02:15:21;;;;;;;4.28;2.47;;;22.40;59.60;;;;;;4888330;28;92667;-90
2023/05/28 02:17:47;;;;;;;2.95;2.45;;;22.40;60.10;;;;;;4880571;28;92636;-93
2023/05/28 02:20:13;;;;;;;2.85;2.47;;;22.40;59.80;;;;;;4879988;28;92478;-91
2023/05/28 02:22:38;;;;;;;3.42;3.05;;;22.40;59.80;;;;;;4878409;28;95556;-90
2023/05/28 02:25:05;;;;;;;4.68;3.13;;;22.40;59.80;;;;;;4878523;28;93087;-89
2023/05/28 02:27:31;;;;;;;4.07;2.88;;;22.30;59.80;;;;;;4879279;28;93190;-90
2023/05/28 02:29:57;;;;;;;5.25;2.50;;;22.30;60.00;;;;;;4885400;28;93940;-92
2023/05/28 02:32:23;;;;;;;2.92;2.55;;;22.30;59.80;;;;;;4886642;28;95499;-92
2023/05/28 02:34:48;;;;;;;3.80;2.53;;;22.30;59.70;;;;;;4886956;28;92891;-92
2023/05/28 02:37:14;;;;;;;4.32;2.78;;;22.30;59.80;;;;;;4881892;28;92510;-92
2023/05/28 02:39:40;;;;;;;2.83;2.38;;;22.30;59.80;;;;;;4889988;28;94229;-89
2023/05/28 02:42:05;;;;;;;4.63;2.85;;;22.30;59.90;;;;;;4882308;28;95017;-91
2023/05/28 02:44:31;;;;;;;3.03;2.42;;;22.30;59.80;;;;;;4881193;28;92790;-90
2023/05/28 02:46:57;;;;;;;3.38;3.00;;;22.30;59.80;;;;;;4881001;28;91720;-93
2023/05/28 02:49:22;;;;;;;3.17;2.75;;;22.30;59.90;;;;;;4879196;28;95954;-92
2023/05/28 02:51:48;;;;;;;3.92;2.90;;;22.30;59.90;;;;;;4879381;28;92780;-91
2023/05/28 02:54:13;;;;;;;3.42;2.60;;;22.30;59.90;;;;;;4889118;28;93491;-90
2023/05/28 02:56:39;;;;;;;4.07;2.75;;;22.30;59.90;;;;;;4885391;28;92476;-88
2023/05/28 02:59:05;;;;;;;2.80;2.33;;;22.20;59.90;;;;;;4881365;28;96162;-92
2023/05/28 03:01:30;;;;;;;3.83;2.67;;;22.20;60.00;;;;;;4882449;28;93333;-91
2023/05/28 03:03:56;;;;;;;4.35;2.67;;;22.20;60.00;;;;;;4890494;28;92592;-90
2023/05/28 03:06:22;;;;;;;3.92;3.20;;;22.20;59.90;;;;;;4887226;28;92285;-91
2023/05/28 03:08:48;;;;;;;4.53;2.67;;;22.20;60.00;;;;;;4879927;28;95537;-91
2023/05/28 03:11:13;;;;;;;3.25;2.60;;;22.20;60.00;;;;;;4883363;28;92758;-93
2023/05/28 03:13:39;;;;;;;3.55;2.50;;;22.20;59.90;;;;;;4891070;28;92115;-92
2023/05/28 03:16:05;;;;;;;3.63;2.75;;;22.20;59.90;;;;;;4905739;28;92628;-91
2023/05/28 03:18:31;;;;;;;3.17;2.42;;;22.20;60.80;;;;;;4888470;28;94109;-91
2023/05/28 03:20:57;;;;;;;4.50;2.75;;;22.20;59.90;;;;;;4890392;28;94625;-92
2023/05/28 03:23:22;;;;;;;3.63;2.70;;;22.20;59.90;;;;;;4902245;28;92552;-91
2023/05/28 03:25:48;;;;;;;2.78;2.47;;;22.20;60.10;;;;;;4886287;28;99901;-92
2023/05/28 03:28:14;;;;;;;3.75;2.80;;;22.20;60.10;;;;;;4882945;28;92397;-91
2023/05/28 03:30:39;;;;;;;2.92;2.28;;;22.20;59.90;;;;;;4883698;28;94115;-92
2023/05/28 03:33:05;;;;;;;4.18;2.97;;;22.20;60.00;;;;;;4880676;28;92552;-88
2023/05/28 03:35:30;;;;;;;3.58;2.40;;;22.20;60.20;;;;;;4879972;28;91782;-90
2023/05/28 03:37:56;;;;;;;3.55;2.67;;;22.10;60.00;;;;;;4879672;28;95779;-92
2023/05/28 03:40:22;;;;;;;3.60;2.85;;;22.20;60.10;;;;;;4896650;28;95839;-93
2023/05/28 03:42:48;;;;;;;2.55;2.35;;;22.20;60.00;;;;;;4891952;28;93842;-91
2023/05/28 03:45:14;;;;;;;3.05;2.42;;;22.20;60.20;;;;;;4889380;28;92879;-93
2023/05/28 03:47:40;;;;;;;3.15;2.85;;;22.10;60.10;;;;;;4883170;28;93583;-89
2023/05/28 03:50:06;;;;;;;2.70;2.33;;;22.20;60.00;;;;;;4880549;28;93180;-92
2023/05/28 03:52:32;;;;;;;4.20;2.80;;;22.10;59.90;;;;;;4881248;28;92393;-91
2023/05/28 03:54:58;;;;;;;3.95;2.60;;;22.10;60.00;;;;;;4886809;28;92808;-88
2023/05/28 03:57:24;;;;;;;4.20;2.50;;;22.10;60.00;;;;;;4882340;28;93361;-91
2023/05/28 03:59:49;;;;;;;3.80;3.15;;;22.20;59.80;;;;;;4882350;28;94931;-91
2023/05/28 04:02:15;;;;;;;4.07;2.90;;;22.20;59.90;;;;;;4883889;28;92466;-91
2023/05/28 04:04:40;;;;;;;2.92;2.63;;;22.20;60.10;;;;;;4884982;28;92603;-91
2023/05/28 04:07:07;;;;;;;2.83;2.50;;;22.10;60.20;;;;;;4892059;28;93844;-92
2023/05/28 04:09:32;;;;;;;3.33;2.60;;;22.10;60.10;;;;;;4881411;28;93872;-90
2023/05/28 04:12:01;;;;;;;3.60;2.78;;;22.10;60.20;;;;;;4898161;28;92083;-94
2023/05/28 04:14:27;;;;;;;2.92;2.63;;;22.10;60.00;;;;;;4886951;28;92273;-92
2023/05/28 04:16:53;;;;;;;4.75;3.15;;;22.10;60.00;;;;;;4885849;28;95503;-92
2023/05/28 04:19:19;;;;;;;4.63;2.92;;;22.10;60.10;;;;;;4885541;28;95200;-91
2023/05/28 04:21:45;;;;;;;3.03;2.40;;;22.10;60.00;;;;;;4883547;28;92470;-90
2023/05/28 04:24:11;;;;;;;4.93;3.05;;;22.10;60.10;;;;;;4877645;28;92083;-91
2023/05/28 04:26:37;;;;;;;2.97;2.47;;;22.10;60.10;;;;;;4880518;28;92859;-92
2023/05/28 04:29:02;;;;;;;4.43;2.78;;;22.10;60.00;;;;;;4879296;28;95076;-91
2023/05/28 04:31:28;;;;;;;3.22;2.72;;;22.10;59.90;;;;;;4880687;28;94180;-87
2023/05/28 04:33:54;;;;;;;3.35;2.30;;;22.10;60.00;;;;;;4890793;28;92680;-89
2023/05/28 04:36:20;;;;;;;2.92;2.35;;;22.10;59.90;;;;;;4887426;28;95769;-92
2023/05/28 04:38:46;;;;;;;3.28;2.80;;;22.10;59.90;;;;;;4886687;28;95875;-90
2023/05/28 04:41:14;;;;;;;4.75;2.58;;;22.10;60.00;;;;;;4889952;28;93195;-91
2023/05/28 04:43:41;;;;;;;3.03;2.58;;;22.20;59.90;;;;;;4888032;28;93010;-92
2023/05/28 04:46:08;;;;;;;3.05;2.75;;;22.20;60.00;;;;;;4880360;28;94602;-89
2023/05/28 04:48:35;;;;;;;5.65;2.55;;;22.20;59.90;;;;;;4881345;28;97054;-88
2023/05/28 04:51:03;;;;;;;2.50;2.28;;;22.20;60.20;;;;;;4881337;28;92870;-90
2023/05/28 04:53:29;;;;;;;2.67;2.35;;;22.20;59.90;;;;;;4879082;28;92657;-93
2023/05/28 04:55:56;;;;;;;4.65;2.80;;;22.20;59.90;;;;;;4886392;28;97494;-93
2023/05/28 04:58:22;;;;;;;8.90;3.55;;;22.30;58.30;;;;;;4883671;28;94172;-94
2023/05/28 05:00:47;;;;;;;5.35;3.13;;;22.40;57.60;;;;;;4887637;28;92726;-91
2023/05/28 05:03:14;;;;;;;4.07;2.72;;;22.40;57.60;;;;;;4887971;28;92069;-90
2023/05/28 05:05:40;;;;;;;2.78;2.47;;;22.40;58.60;;;;;;4885519;28;92545;-91
2023/05/28 05:08:06;;;;;;;3.67;3.25;;;22.50;58.90;;;;;;4885037;28;92882;-89
2023/05/28 05:10:32;;;;;;;4.95;3.65;;;22.50;58.40;;;;;;4888397;28;92746;-90
2023/05/28 05:12:59;;;;;;;3.55;3.08;;;22.50;57.10;;;;;;4881976;28;91530;-92
2023/05/28 05:15:26;;;;;;;5.15;2.83;;;22.40;58.00;;;;;;4886347;28;93605;-89
2023/05/28 05:17:52;;;;;;;6.38;3.58;;;22.50;58.50;;;;;;4888803;28;93355;-89
2023/05/28 05:20:17;;;;;;;5.25;3.08;;;22.50;58.60;;;;;;4885162;28;93754;-87
2023/05/28 05:22:43;;;;;;;7.30;3.38;;;22.50;58.60;;;;;;4893349;28;96151;-90
2023/05/28 05:25:09;;;;;;;4.80;3.80;;;22.60;58.50;;;;;;4883790;28;94397;-86
2023/05/28 05:27:36;;;;;;;7.13;4.28;;;22.60;57.00;;;;;;4882937;28;93877;-93
2023/05/28 05:30:03;;;;;;;7.10;3.90;;;22.60;57.20;;;;;;4904802;28;93031;-89
2023/05/28 05:32:29;;;;;;;13.88;4.40;;;22.60;57.70;;;;;;4885966;28;93141;-86
2023/05/28 05:34:54;;;;;;;33.47;10.27;;;22.60;58.10;;;;;;4881309;28;95690;-88
2023/05/28 05:37:20;;;;;;;54.95;13.27;;;22.60;58.00;;;;;;4877268;28;95551;-88
2023/05/28 05:39:46;;;;;;;58.42;15.63;;;22.60;57.90;;;;;;4886008;28;92127;-88
2023/05/28 05:42:11;;;;;;;55.42;15.30;;;22.60;58.00;;;;;;4877430;28;92696;-87
2023/05/28 05:44:37;;;;;;;53.65;15.25;;;22.50;57.90;;;;;;4870610;28;97432;-87
2023/05/28 05:47:03;;;;;;;53.83;14.80;;;22.50;58.00;;;;;;4869114;28;96192;-88
2023/05/28 05:49:29;;;;;;;53.30;15.63;;;22.50;58.00;;;;;;4872047;28;92832;-87
2023/05/28 05:51:55;;;;;;;43.38;14.95;;;22.50;58.10;;;;;;4873766;28;92798;-88
2023/05/28 05:54:20;;;;;;;48.50;14.73;;;22.50;58.10;;;;;;4872691;28;95321;-87
2023/05/28 05:56:46;;;;;;;48.55;14.48;;;22.50;58.20;;;;;;4877569;28;92447;-87
2023/05/28 05:59:11;;;;;;;44.00;13.85;;;22.50;58.30;;;;;;4881229;28;93021;-88
2023/05/28 06:01:37;;;;;;;43.60;13.90;;;22.50;58.30;;;;;;4881487;28;92293;-87
2023/05/28 06:04:03;;;;;;;43.20;13.43;;;22.50;58.40;;;;;;4880610;28;96242;-88
2023/05/28 06:06:28;;;;;;;48.38;14.05;;;22.60;58.50;;;;;;4873465;28;94690;-88
2023/05/28 06:08:54;;;;;;;53.35;13.93;;;22.60;58.30;;;;;;4877957;28;93656;-90
2023/05/28 06:11:22;;;;;;;39.65;13.55;;;22.70;58.30;;;;;;4884976;28;92649;-90
2023/05/28 06:13:48;;;;;;;41.03;12.10;;;22.70;58.40;;;;;;4880791;28;95408;-93
2023/05/28 06:16:13;;;;;;;48.35;14.13;;;22.80;58.50;;;;;;4876714;28;95709;-88
2023/05/28 06:18:39;;;;;;;40.30;12.80;;;22.90;58.30;;;;;;4881296;28;92445;-90
2023/05/28 06:21:07;;;;;;;36.60;11.68;;;22.90;58.30;;;;;;4906676;28;93313;-89
2023/05/28 06:23:33;;;;;;;38.03;12.07;;;22.90;57.70;;;;;;4871942;28;94863;-89
2023/05/28 06:25:59;;;;;;;32.22;11.05;;;22.80;57.90;;;;;;4875711;28;95902;-91
2023/05/28 06:28:24;;;;;;;38.13;12.38;;;22.90;58.10;;;;;;4874785;28;93012;-89
2023/05/28 06:30:50;;;;;;;38.95;11.88;;;22.90;58.20;;;;;;4893885;28;91969;-90
2023/05/28 06:33:16;;;;;;;29.58;11.30;;;22.80;58.40;;;;;;4873508;28;96027;-90
2023/05/28 06:35:44;;;;;;;33.13;11.63;;;22.80;58.50;;;;;;4875639;28;96107;-90
2023/05/28 06:38:10;;;;;;;32.80;11.70;;;22.80;58.60;;;;;;4824243;28;92740;-91
2023/05/28 06:40:35;;;;;;;34.78;12.13;;;22.80;58.70;;;;;;4879177;28;92568;-87
2023/05/28 06:43:02;;;;;;;36.45;11.57;;;22.80;58.70;;;;;;4896315;28;95127;-91
2023/05/28 06:45:28;;;;;;;30.48;9.70;;;22.80;58.50;;;;;;4887708;28;92770;-91
2023/05/28 06:47:54;;;;;;;29.00;10.32;;;22.90;58.60;;;;;;4883553;28;92852;-88
2023/05/28 06:50:20;;;;;;;26.27;9.93;;;23.00;58.40;;;;;;4880830;28;91824;-91
2023/05/28 06:52:46;;;;;;;26.02;9.88;;;23.00;58.20;;;;;;4882290;28;93262;-89
2023/05/28 06:55:11;;;;;;;30.40;9.98;;;23.00;57.80;;;;;;4895143;28;95386;-92
2023/05/28 06:57:37;;;;;;;33.22;10.75;;;23.00;57.80;;;;;;4884368;28;93432;-91
2023/05/28 07:00:16;;;;;;;34.13;9.85;;;23.00;57.90;;;;;;4878580;28;92549;-91
2023/05/28 07:02:43;;;;;;;;;;;23.10;57.90;;;;;;4879943;28;94565;-92
2023/05/28 07:05:09;;;;;;;24.48;9.38;;;23.00;57.70;;;;;;4881049;28;92767;-89
2023/05/28 07:07:36;;;;;;;23.20;9.32;;;23.00;57.60;;;;;;4877543;28;93337;-88
2023/05/28 07:10:02;;;;;;;22.25;9.23;;;23.10;56.60;;;;;;4879900;28;92788;-92
2023/05/28 07:12:27;;;;;;;23.58;10.38;;;23.10;56.60;;;;;;4879809;28;93185;-92
2023/05/28 07:14:53;;;;;;;23.00;9.98;;;23.00;56.80;;;;;;4879034;28;95178;-93
2023/05/28 07:17:29;;;;;;;20.52;8.57;;;22.90;55.50;;;;;;4881706;28;93193;-87
2023/05/28 07:20:06;;;;;;;20.08;9.32;;;22.80;53.90;;;;;;4883736;28;92330;-88
2023/05/28 07:22:32;;;;;;;20.25;9.50;;;22.70;54.50;;;;;;4901666;28;96274;-90
2023/05/28 07:24:58;;;;;;;17.73;8.18;;;22.70;55.00;;;;;;4886796;28;93536;-92
2023/05/28 07:27:23;;;;;;;20.70;8.13;;;22.70;54.40;;;;;;4889142;28;92128;-95
2023/05/28 07:29:49;;;;;;;17.10;8.18;;;22.70;54.80;;;;;;4884876;28;93415;-95
2023/05/28 07:32:15;;;;;;;22.65;9.00;;;22.70;55.40;;;;;;4882319;28;94520;-95
2023/05/28 07:34:43;;;;;;;16.38;8.25;;;22.60;55.30;;;;;;4873930;28;95668;-91
2023/05/28 07:37:08;;;;;;;13.80;7.97;;;22.60;55.00;;;;;;4879725;28;93155;-92
2023/05/28 07:39:34;;;;;;;18.13;7.93;;;22.60;53.70;;;;;;4879690;28;92318;-90
2023/05/28 07:42:00;;;;;;;16.95;8.00;;;22.60;53.80;;;;;;4887040;28;92583;-93
2023/05/28 07:44:26;;;;;;;16.25;7.78;;;22.60;53.70;;;;;;4885875;28;92686;-88
2023/05/28 07:46:51;;;;;;;15.48;7.25;;;22.60;54.50;;;;;;4879175;28;93374;-89
2023/05/28 07:49:17;;;;;;;16.30;7.38;;;22.60;54.60;;;;;;4888152;28;93115;-88
2023/05/28 07:51:43;;;;;;;19.00;7.68;;;22.60;54.50;;;;;;4890850;28;95602;-87
2023/05/28 07:54:08;;;;;;;16.35;7.72;;;22.60;54.40;;;;;;4884823;28;92759;-93
2023/05/28 07:56:34;;;;;;;20.88;8.23;;;22.60;54.10;;;;;;4885322;28;93364;-92
2023/05/28 07:59:00;;;;;;;19.52;7.00;;;22.80;54.50;;;;;;4882065;28;92626;-90
2023/05/28 08:01:25;;;;;;;22.13;7.80;;;22.80;54.40;;;;;;4881144;28;93127;-96
2023/05/28 08:03:54;;;;;;;17.85;7.70;;;22.90;54.60;;;;;;4884038;28;95138;-89
2023/05/28 08:06:24;;;;;;;12.73;7.30;;;22.90;55.20;;;;;;4906899;28;92455;-95
2023/05/28 08:08:49;;;;;;;17.85;7.95;;;22.90;55.40;;;;;;4899604;28;92586;-95
2023/05/28 08:11:15;;;;;;;15.43;7.03;;;22.90;56.20;;;;;;4891280;28;95132;-91
2023/05/28 08:13:41;;;;;;;18.08;8.35;;;23.00;56.40;;;;;;4884972;28;95041;-93
2023/05/28 08:16:17;;;;;;;18.60;7.60;;;23.00;56.90;;;;;;4893413;28;92426;-86
2023/05/28 08:18:43;;;;;;;17.10;7.38;;;23.00;57.10;;;;;;4902179;28;92335;-85
2023/05/28 08:21:08;;;;;;;10.65;6.75;;;23.00;56.90;;;;;;4894008;28;93377;-95
2023/05/28 08:23:34;;;;;;;12.73;7.43;;;22.90;57.60;;;;;;4883103;28;93134;-87
2023/05/28 08:26:01;;;;;;;15.50;7.45;;;22.90;55.90;;;;;;4877382;28;93136;-88
2023/05/28 08:28:28;;;;;;;14.15;6.45;;;23.00;57.00;;;;;;4884201;28;92076;-91
2023/05/28 08:30:53;;;;;;;21.08;7.03;;;23.00;56.20;;;;;;4876831;28;93282;-88
2023/05/28 08:33:19;;;;;;;14.32;7.22;;;23.20;56.40;;;;;;4883814;28;92800;-90
2023/05/28 08:35:44;;;;;;;17.73;6.50;;;23.10;56.40;;;;;;4876552;28;94155;-93
2023/05/28 08:38:10;;;;;;;16.15;7.20;;;23.20;56.40;;;;;;4878596;28;93488;-91
2023/05/28 08:40:42;;;;;;;17.40;7.53;;;23.20;55.90;;;;;;4866070;28;95716;-91
2023/05/28 08:43:08;;;;;;;14.30;7.05;;;23.10;56.40;;;;;;4880850;28;95829;-92
2023/05/28 08:45:36;;;;;;;13.45;6.38;;;23.10;56.50;;;;;;4882249;28;93292;-88
2023/05/28 08:48:05;;;;;;;14.65;7.15;;;23.00;56.40;;;;;;4870896;28;93791;-88
2023/05/28 08:50:32;;;;;;;13.03;6.47;;;23.10;56.50;;;;;;4874872;28;95478;-90
2023/05/28 08:53:01;;;;;;;14.57;6.82;;;23.00;56.40;;;;;;4877565;28;93643;-90
2023/05/28 08:55:27;;;;;;;12.13;6.50;;;23.00;56.50;;;;;;4841832;28;1193213;-89
2023/05/28 08:57:54;;;;;;;11.32;6.20;;;23.00;56.50;;;;;;4884482;28;92968;-92
2023/05/28 09:00:21;;;;;;;16.90;6.68;;;23.00;56.30;;;;;;4867959;28;96553;-88
2023/05/28 09:02:47;;;;;;;12.05;6.40;;;23.00;56.20;;;;;;4873727;28;94467;-91
2023/05/28 09:05:12;;;;;;;12.85;6.28;;;23.00;56.20;;;;;;4872006;28;92823;-92
2023/05/28 09:07:38;;;;;;;12.98;6.50;;;23.00;56.10;;;;;;4879168;28;92851;-90
2023/05/28 09:10:04;;;;;;;13.10;6.43;;;22.90;55.90;;;;;;4868533;28;93591;-89
2023/05/28 09:12:30;;;;;;;10.77;6.15;;;22.90;55.90;;;;;;4874379;28;94450;-88
2023/05/28 09:14:55;;;;;;;13.07;6.57;;;23.00;55.80;;;;;;4876362;28;93450;-90
2023/05/28 09:17:38;;;;;;;10.65;5.93;;;23.00;55.70;;;;;;4875749;28;91829;-88
2023/05/28 09:20:14;;;;;;;11.48;6.35;;;23.00;55.40;;;;;;4870440;28;95563;-88
2023/05/28 09:22:39;;;;;;;10.98;6.20;;;22.90;55.20;;;;;;4867981;28;93424;-90
2023/05/28 09:25:08;;;;;;;13.63;6.35;;;23.00;55.20;;;;;;4881314;28;93813;-89
2023/05/28 09:27:36;;;;;;;16.38;6.22;;;23.00;55.00;;;;;;4829936;28;93976;-86
2023/05/28 09:30:08;;;;;;;14.20;6.10;;;23.00;55.00;;;;;;4859100;28;95618;-86
2023/05/28 09:32:35;;;;;;;12.43;6.00;;;23.00;55.40;;;;;;4859220;28;95688;-86
2023/05/28 09:35:01;;;;;;;15.07;5.82;;;23.10;55.80;;;;;;4865566;28;92490;-87
2023/05/28 09:37:29;;;;;;;14.27;6.97;;;23.10;55.30;;;;;;4871981;28;93253;-86
2023/05/28 09:40:10;;;;;;;9.90;5.47;;;23.10;55.20;;;;;;4876617;28;95730;-86
2023/05/28 09:42:43;;;;;;;13.02;5.93;;;23.00;55.10;;;;;;4887017;28;99312;-87
2023/05/28 09:45:10;;;;;;;11.85;5.82;;;23.10;55.10;;;;;;4876927;28;92214;-86
2023/05/28 09:47:43;;;;;;;8.75;5.63;;;23.10;54.90;;;;;;4875640;28;92089;-87
2023/05/28 09:50:10;;;;;;;15.35;6.40;;;23.10;55.10;;;;;;4867027;28;94465;-86
2023/05/28 09:52:39;;;;;;;26.95;10.68;;;23.00;55.90;;;;;;4867308;28;96176;-85
2023/05/28 09:55:07;;;;;;;27.98;12.70;;;23.00;55.40;;;;;;4879938;28;92963;-85
2023/05/28 09:57:35;;;;;;;26.77;10.38;;;23.10;55.60;;;;;;4877209;28;92854;-85
2023/05/28 10:00:12;;;;;;;27.10;10.20;;;23.10;55.40;;;;;;4878278;28;96040;-85
2023/05/28 10:03:10;;;;;;;24.38;9.70;;;23.10;55.70;;;;;;4880041;28;94144;-86
2023/05/28 10:05:37;;;;;;;23.33;9.65;;;23.10;56.10;;;;;;4878275;28;92723;-84
2023/05/28 10:08:05;;;;;;;23.15;9.30;;;23.10;56.30;;;;;;4871105;28;91280;-85
2023/05/28 10:10:31;;;;;;;19.05;9.00;;;23.10;56.40;;;;;;4880783;28;92803;-86
2023/05/28 10:12:58;;;;;;;21.15;8.95;;;23.10;56.50;;;;;;4882008;28;92653;-86
2023/05/28 10:15:24;;;;;;;19.85;8.98;;;23.10;56.70;;;;;;4868616;28;94704;-86
2023/05/28 10:17:51;;;;;;;16.75;8.38;;;23.10;56.40;;;;;;4875556;28;92978;-86
2023/05/28 10:20:18;;;;;;;17.70;8.63;;;23.10;56.40;;;;;;4872603;28;95813;-87
2023/05/28 10:22:44;;;;;;;18.20;8.38;;;23.10;56.30;;;;;;4868784;28;93343;-87
2023/05/28 10:25:10;;;;;;;17.88;9.07;;;23.20;56.40;;;;;;4878188;28;92978;-86
2023/05/28 10:27:42;;;;;;;17.77;8.50;;;23.10;56.30;;;;;;4851609;28;92715;-86
2023/05/28 10:30:09;;;;;;;19.63;8.60;;;23.10;56.10;;;;;;4865077;28;95739;-88
2023/05/28 10:32:44;;;;;;;18.92;7.80;;;23.10;56.00;;;;;;4868803;28;93297;-89
2023/05/28 10:35:13;;;;;;;17.58;7.97;;;23.10;56.10;;;;;;4873276;28;93162;-88
2023/05/28 10:37:39;;;;;;;17.27;7.85;;;23.20;56.20;;;;;;4881170;28;92991;-88
2023/05/28 10:40:23;;;;;;;20.73;8.77;;;23.10;56.40;;;;;;4880901;28;94268;-89
2023/05/28 10:42:49;;;;;;;16.45;7.60;;;23.10;56.60;;;;;;4868617;28;98190;-87
2023/05/28 10:45:15;;;;;;;17.23;8.15;;;23.10;56.70;;;;;;4867457;28;92166;-88
2023/05/28 10:47:50;;;;;;;20.20;8.07;;;23.10;56.70;;;;;;4866287;28;93339;-89
2023/05/28 10:50:17;;;;;;;18.85;8.10;;;23.10;56.80;;;;;;4866675;28;94627;-88
2023/05/28 10:53:10;;;;;;;15.43;7.40;;;23.20;56.90;;;;;;4864345;28;94567;-88
2023/05/28 10:55:53;;;;;;;15.35;7.68;;;23.20;57.00;;;;;;4865452;28;93035;-87
2023/05/28 10:58:34;;;;;;;20.08;7.80;;;23.20;56.90;;;;;;4877987;28;92206;-87
2023/05/28 11:01:09;;;;;;;15.38;7.03;;;23.10;56.70;;;;;;4883878;28;95536;-88
2023/05/28 11:04:03;;;;;;;15.60;7.32;;;23.10;56.60;;;;;;4885243;28;99562;-88
2023/05/28 11:06:29;;;;;;;16.60;6.85;;;23.10;56.50;;;;;;4872458;28;93957;-87
2023/05/28 11:08:57;;;;;;;16.35;7.03;;;23.10;56.70;;;;;;4888406;28;93710;-89
2023/05/28 11:11:22;;;;;;;16.02;7.28;;;23.10;56.60;;;;;;4871895;28;95801;-87
2023/05/28 11:13:48;;;;;;;12.52;6.40;;;23.10;56.50;;;;;;4872002;28;95627;-87
2023/05/28 11:16:16;;;;;;;14.10;6.85;;;23.20;56.40;;;;;;4873713;28;92682;-90
2023/05/28 11:19:04;;;;;;;15.55;7.57;;;23.20;56.10;;;;;;4875403;28;92728;-89
2023/05/28 11:21:32;;;;;;;14.13;6.57;;;23.20;55.60;;;;;;4873354;28;94026;-89
2023/05/28 11:24:02;;;;;;;11.70;5.95;;;23.20;55.50;;;;;;4878109;28;95268;-90
2023/05/28 11:26:28;;;;;;;13.68;6.68;;;23.20;55.10;;;;;;4878822;28;92814;-87
2023/05/28 11:28:54;;;;;;;14.32;6.70;;;23.20;54.60;;;;;;4875781;28;93515;-85
2023/05/28 11:31:19;;;;;;;14.82;6.55;;;23.30;54.20;;;;;;4869608;28;94098;-84
2023/05/28 11:33:49;;;;;;;14.95;6.03;;;23.40;54.00;;;;;;4862880;28;96910;-85
2023/05/28 11:36:14;;;;;;;;;;;23.30;53.70;;;;;;4870450;28;93189;-87
2023/05/28 11:38:40;;;;;;;11.20;5.88;;;23.30;53.70;;;;;;4867306;28;93089;-84
2023/05/28 11:41:06;;;;;;;12.85;6.30;;;23.30;53.80;;;;;;4862214;28;95374;-86
2023/05/28 11:43:31;;;;;;;11.60;5.22;;;23.30;53.70;;;;;;4856504;28;93681;-85
2023/05/28 11:45:59;;;;;;;12.43;5.95;;;23.30;53.80;;;;;;4885462;28;92792;-86
2023/05/28 11:48:26;;;;;;;9.30;5.35;;;23.30;53.90;;;;;;4866165;28;92910;-85
2023/05/28 11:51:02;;;;;;;9.82;5.55;;;23.30;53.90;;;;;;4884712;28;95760;-85
2023/05/28 11:53:44;;;;;;;10.27;5.85;;;23.30;54.10;;;;;;4883376;28;96400;-84
2023/05/28 11:56:10;;;;;;;9.50;5.70;;;23.30;54.10;;;;;;4878698;28;93955;-86
2023/05/28 11:58:41;;;;;;;11.23;5.93;;;23.30;54.30;;;;;;4864789;28;93255;-86
2023/05/28 12:01:07;;;;;;;12.43;6.15;;;23.20;54.60;;;;;;4871276;28;95731;-85
2023/05/28 12:03:34;;;;;;;12.20;6.38;;;23.20;54.70;;;;;;4862243;28;95570;-85
2023/05/28 12:06:00;;;;;;;12.57;6.38;;;23.30;55.30;;;;;;4861435;28;92994;-86
2023/05/28 12:08:28;;;;;;;8.52;5.68;;;23.40;55.00;;;;;;4865750;28;92995;-85
2023/05/28 12:11:02;;;;;;;13.77;5.70;;;23.30;55.00;;;;;;4867409;28;95455;-86
2023/05/28 12:13:34;;;;;;;15.00;5.95;;;23.30;55.20;;;;;;4876021;28;94231;-84
2023/05/28 12:16:10;;;;;;;11.15;5.60;;;23.30;55.30;;;;;;4872164;28;93119;-85
2023/05/28 12:18:43;;;;;;;10.93;5.82;;;23.30;55.70;;;;;;4866120;28;93000;-85
2023/05/28 12:21:18;;;;;;;11.60;5.40;;;23.30;55.20;;;;;;4880962;28;96980;-85
2023/05/28 12:23:47;;;;;;;10.30;5.43;;;23.30;55.40;;;;;;4875389;28;93785;-85
2023/05/28 12:26:14;;;;;;;10.10;5.75;;;23.30;55.40;;;;;;4872364;28;92211;-84
2023/05/28 12:28:41;;;;;;;10.48;5.80;;;23.30;55.50;;;;;;4872841;28;92540;-85
2023/05/28 12:31:07;;;;;;;8.55;5.68;;;23.30;55.50;;;;;;4883074;28;93285;-85
2023/05/28 12:33:33;;;;;;;9.20;5.53;;;23.30;55.40;;;;;;4881833;28;95752;-86
2023/05/28 12:35:59;;;;;;;10.73;5.78;;;23.30;55.50;;;;;;4880240;28;94080;-85
2023/05/28 12:38:26;;;;;;;11.45;5.57;;;23.30;55.50;;;;;;4879727;28;91950;-87
2023/05/28 12:40:52;;;;;;;11.88;6.22;;;23.30;55.50;;;;;;4873343;28;94128;-89